sensor_id;sensor_type;location;lat;lon;timestamp;P1;durP1;ratioP1;P2;durP2;ratioP2
4519;SDS011;2272;49.226;8.108;2023-10-13T00:01:10;12.60;;;6.90;;
4519;SDS011;2272;49.226;8.108;2023-10-13T00:03:38;12.23;;;6.60;;
4519;SDS011;2272;49.226;8.108;2023-10-13T00:06:05;6.80;;;6.10;;
4519;SDS011;2272;49.226;8.108;2023-10-13T00:08:33;14.57;;;6.63;;
4519;SDS011;2272;49.226;8.108;2023-10-13T00:11:01;10.80;;;6.77;;
4519;SDS011;2272;49.226;8.108;2023-10-13T00:13:32;14.20;;;6.67;;
4519;SDS011;2272;49.226;8.108;2023-10-13T00:16:09;12.20;;;6.80;;
4519;SDS011;2272;49.226;8.108;2023-10-13T00:18:42;13.00;;;6.30;;
4519;SDS011;2272;49.226;8.108;2023-10-13T00:21:09;21.50;;;6.40;;
4519;SDS011;2272;49.226;8.108;2023-10-13T00:23:38;11.93;;;6.77;;
4519;SDS011;2272;49.226;8.108;2023-10-13T00:26:08;12.60;;;5.97;;
4519;SDS011;2272;49.226;8.108;2023-10-13T00:28:36;16.77;;;6.70;;
4519;SDS011;2272;49.226;8.108;2023-10-13T00:31:12;17.50;;;7.93;;
4519;SDS011;2272;49.226;8.108;2023-10-13T00:33:39;18.80;;;6.33;;
4519;SDS011;2272;49.226;8.108;2023-10-13T00:36:07;7.30;;;5.97;;
4519;SDS011;2272;49.226;8.108;2023-10-13T00:38:42;15.27;;;6.77;;
4519;SDS011;2272;49.226;8.108;2023-10-13T00:41:13;10.03;;;5.70;;
4519;SDS011;2272;49.226;8.108;2023-10-13T00:43:44;12.00;;;6.40;;
4519;SDS011;2272;49.226;8.108;2023-10-13T00:46:30;27.63;;;6.40;;
4519;SDS011;2272;49.226;8.108;2023-10-13T00:48:58;12.80;;;6.10;;
4519;SDS011;2272;49.226;8.108;2023-10-13T00:51:26;11.33;;;5.97;;
4519;SDS011;2272;49.226;8.108;2023-10-13T00:53:57;10.13;;;6.37;;
4519;SDS011;2272;49.226;8.108;2023-10-13T00:56:27;18.90;;;6.83;;
4519;SDS011;2272;49.226;8.108;2023-10-13T00:58:55;12.53;;;5.67;;
4519;SDS011;2272;49.226;8.108;2023-10-13T01:01:27;12.70;;;6.37;;
4519;SDS011;2272;49.226;8.108;2023-10-13T01:03:56;24.00;;;7.30;;
4519;SDS011;2272;49.226;8.108;2023-10-13T01:06:27;13.20;;;6.33;;
4519;SDS011;2272;49.226;8.108;2023-10-13T01:08:57;18.33;;;6.67;;
4519;SDS011;2272;49.226;8.108;2023-10-13T01:11:35;13.80;;;6.00;;
4519;SDS011;2272;49.226;8.108;2023-10-13T01:14:02;13.93;;;6.50;;
4519;SDS011;2272;49.226;8.108;2023-10-13T01:16:29;8.90;;;5.83;;
4519;SDS011;2272;49.226;8.108;2023-10-13T01:18:56;25.10;;;5.90;;
4519;SDS011;2272;49.226;8.108;2023-10-13T01:21:25;12.33;;;5.90;;
4519;SDS011;2272;49.226;8.108;2023-10-13T01:23:54;14.70;;;7.30;;
4519;SDS011;2272;49.226;8.108;2023-10-13T01:26:21;9.40;;;5.43;;
4519;SDS011;2272;49.226;8.108;2023-10-13T01:28:49;11.80;;;5.27;;
4519;SDS011;2272;49.226;8.108;2023-10-13T01:31:16;15.87;;;6.70;;
4519;SDS011;2272;49.226;8.108;2023-10-13T01:33:51;6.23;;;5.53;;
4519;SDS011;2272;49.226;8.108;2023-10-13T01:36:20;6.33;;;4.80;;
4519;SDS011;2272;49.226;8.108;2023-10-13T01:38:47;11.10;;;5.67;;
4519;SDS011;2272;49.226;8.108;2023-10-13T01:41:16;6.30;;;5.17;;
4519;SDS011;2272;49.226;8.108;2023-10-13T01:43:43;8.90;;;6.53;;
4519;SDS011;2272;49.226;8.108;2023-10-13T01:46:10;6.93;;;5.00;;
4519;SDS011;2272;49.226;8.108;2023-10-13T01:48:38;7.20;;;5.30;;
4519;SDS011;2272;49.226;8.108;2023-10-13T01:51:07;12.10;;;5.43;;
4519;SDS011;2272;49.226;8.108;2023-10-13T01:53:35;7.53;;;5.23;;
4519;SDS011;2272;49.226;8.108;2023-10-13T01:56:04;10.10;;;5.87;;
4519;SDS011;2272;49.226;8.108;2023-10-13T01:58:37;9.97;;;5.87;;
4519;SDS011;2272;49.226;8.108;2023-10-13T02:01:07;15.90;;;6.60;;
4519;SDS011;2272;49.226;8.108;2023-10-13T02:03:34;11.97;;;5.90;;
4519;SDS011;2272;49.226;8.108;2023-10-13T02:06:06;12.97;;;6.80;;
4519;SDS011;2272;49.226;8.108;2023-10-13T02:08:35;6.07;;;4.83;;
4519;SDS011;2272;49.226;8.108;2023-10-13T02:11:09;9.20;;;6.00;;
4519;SDS011;2272;49.226;8.108;2023-10-13T02:13:34;8.80;;;6.00;;
4519;SDS011;2272;49.226;8.108;2023-10-13T02:16:08;8.60;;;6.07;;
4519;SDS011;2272;49.226;8.108;2023-10-13T02:18:33;8.50;;;5.90;;
4519;SDS011;2272;49.226;8.108;2023-10-13T02:21:06;10.30;;;6.40;;
4519;SDS011;2272;49.226;8.108;2023-10-13T02:23:37;12.50;;;6.07;;
4519;SDS011;2272;49.226;8.108;2023-10-13T02:26:08;7.60;;;5.80;;
4519;SDS011;2272;49.226;8.108;2023-10-13T02:28:39;12.60;;;7.20;;
4519;SDS011;2272;49.226;8.108;2023-10-13T02:31:05;15.43;;;6.20;;
4519;SDS011;2272;49.226;8.108;2023-10-13T02:33:31;12.27;;;5.37;;
4519;SDS011;2272;49.226;8.108;2023-10-13T02:35:59;21.20;;;6.90;;
4519;SDS011;2272;49.226;8.108;2023-10-13T02:38:29;7.87;;;5.43;;
4519;SDS011;2272;49.226;8.108;2023-10-13T02:41:11;7.20;;;5.50;;
4519;SDS011;2272;49.226;8.108;2023-10-13T02:43:45;14.67;;;6.13;;
4519;SDS011;2272;49.226;8.108;2023-10-13T02:46:11;13.40;;;6.10;;
4519;SDS011;2272;49.226;8.108;2023-10-13T02:48:41;6.00;;;5.40;;
4519;SDS011;2272;49.226;8.108;2023-10-13T02:51:07;8.90;;;5.90;;
4519;SDS011;2272;49.226;8.108;2023-10-13T02:53:42;13.70;;;5.37;;
4519;SDS011;2272;49.226;8.108;2023-10-13T02:56:12;19.53;;;5.60;;
4519;SDS011;2272;49.226;8.108;2023-10-13T02:58:39;20.33;;;6.57;;
4519;SDS011;2272;49.226;8.108;2023-10-13T03:01:10;18.47;;;6.23;;
4519;SDS011;2272;49.226;8.108;2023-10-13T03:03:47;13.23;;;7.00;;
4519;SDS011;2272;49.226;8.108;2023-10-13T03:06:16;10.90;;;6.13;;
4519;SDS011;2272;49.226;8.108;2023-10-13T03:08:57;6.17;;;5.30;;
4519;SDS011;2272;49.226;8.108;2023-10-13T03:11:25;20.57;;;6.73;;
4519;SDS011;2272;49.226;8.108;2023-10-13T03:13:57;16.73;;;5.57;;
4519;SDS011;2272;49.226;8.108;2023-10-13T03:16:26;16.27;;;6.10;;
4519;SDS011;2272;49.226;8.108;2023-10-13T03:18:55;15.53;;;5.60;;
4519;SDS011;2272;49.226;8.108;2023-10-13T03:21:21;8.80;;;5.63;;
4519;SDS011;2272;49.226;8.108;2023-10-13T03:23:57;16.93;;;6.40;;
4519;SDS011;2272;49.226;8.108;2023-10-13T03:26:31;9.60;;;5.70;;
4519;SDS011;2272;49.226;8.108;2023-10-13T03:29:02;15.07;;;5.80;;
4519;SDS011;2272;49.226;8.108;2023-10-13T03:31:39;25.30;;;5.70;;
4519;SDS011;2272;49.226;8.108;2023-10-13T03:34:10;14.17;;;5.70;;
4519;SDS011;2272;49.226;8.108;2023-10-13T03:36:37;10.73;;;6.27;;
4519;SDS011;2272;49.226;8.108;2023-10-13T03:39:22;15.47;;;5.07;;
4519;SDS011;2272;49.226;8.108;2023-10-13T03:41:55;7.20;;;5.37;;
4519;SDS011;2272;49.226;8.108;2023-10-13T03:44:24;8.00;;;5.60;;
4519;SDS011;2272;49.226;8.108;2023-10-13T03:46:56;12.07;;;5.60;;
4519;SDS011;2272;49.226;8.108;2023-10-13T03:49:33;9.43;;;4.73;;
4519;SDS011;2272;49.226;8.108;2023-10-13T03:52:03;15.70;;;5.10;;
4519;SDS011;2272;49.226;8.108;2023-10-13T03:54:31;6.57;;;5.47;;
4519;SDS011;2272;49.226;8.108;2023-10-13T03:57:00;8.50;;;5.40;;
4519;SDS011;2272;49.226;8.108;2023-10-13T03:59:37;17.37;;;5.37;;
4519;SDS011;2272;49.226;8.108;2023-10-13T04:02:06;12.33;;;6.90;;
4519;SDS011;2272;49.226;8.108;2023-10-13T04:04:42;15.53;;;5.87;;
4519;SDS011;2272;49.226;8.108;2023-10-13T04:07:13;11.17;;;5.90;;
4519;SDS011;2272;49.226;8.108;2023-10-13T04:10:04;18.83;;;6.13;;
4519;SDS011;2272;49.226;8.108;2023-10-13T04:12:50;10.30;;;6.20;;
4519;SDS011;2272;49.226;8.108;2023-10-13T04:15:34;11.27;;;5.40;;
4519;SDS011;2272;49.226;8.108;2023-10-13T04:18:08;8.40;;;5.67;;
4519;SDS011;2272;49.226;8.108;2023-10-13T04:20:58;12.53;;;6.30;;
4519;SDS011;2272;49.226;8.108;2023-10-13T04:23:43;14.60;;;6.00;;
4519;SDS011;2272;49.226;8.108;2023-10-13T04:26:24;13.27;;;6.20;;
4519;SDS011;2272;49.226;8.108;2023-10-13T04:29:01;8.40;;;6.03;;
4519;SDS011;2272;49.226;8.108;2023-10-13T04:31:35;8.00;;;5.60;;
4519;SDS011;2272;49.226;8.108;2023-10-13T04:34:23;11.10;;;6.73;;
4519;SDS011;2272;49.226;8.108;2023-10-13T04:37:00;8.83;;;5.80;;
4519;SDS011;2272;49.226;8.108;2023-10-13T04:39:48;12.77;;;5.90;;
4519;SDS011;2272;49.226;8.108;2023-10-13T04:42:21;11.93;;;6.50;;
4519;SDS011;2272;49.226;8.108;2023-10-13T04:45:04;12.83;;;6.30;;
4519;SDS011;2272;49.226;8.108;2023-10-13T04:47:43;6.40;;;4.90;;
4519;SDS011;2272;49.226;8.108;2023-10-13T04:50:23;21.43;;;6.73;;
4519;SDS011;2272;49.226;8.108;2023-10-13T04:53:00;19.93;;;6.07;;
4519;SDS011;2272;49.226;8.108;2023-10-13T04:55:38;13.83;;;6.33;;
4519;SDS011;2272;49.226;8.108;2023-10-13T04:58:25;16.63;;;5.97;;
4519;SDS011;2272;49.226;8.108;2023-10-13T05:01:21;13.43;;;6.30;;
4519;SDS011;2272;49.226;8.108;2023-10-13T05:04:17;11.53;;;5.47;;
4519;SDS011;2272;49.226;8.108;2023-10-13T05:06:57;12.17;;;6.00;;
4519;SDS011;2272;49.226;8.108;2023-10-13T05:09:42;11.17;;;5.90;;
4519;SDS011;2272;49.226;8.108;2023-10-13T05:12:26;12.07;;;5.80;;
4519;SDS011;2272;49.226;8.108;2023-10-13T05:15:10;16.73;;;5.17;;
4519;SDS011;2272;49.226;8.108;2023-10-13T05:17:54;16.40;;;5.50;;
4519;SDS011;2272;49.226;8.108;2023-10-13T05:20:40;17.47;;;5.30;;
4519;SDS011;2272;49.226;8.108;2023-10-13T05:23:24;11.10;;;5.93;;
4519;SDS011;2272;49.226;8.108;2023-10-13T05:26:08;11.30;;;5.63;;
4519;SDS011;2272;49.226;8.108;2023-10-13T05:29:04;13.63;;;5.97;;
4519;SDS011;2272;49.226;8.108;2023-10-13T05:31:48;15.60;;;5.33;;
4519;SDS011;2272;49.226;8.108;2023-10-13T05:34:32;8.20;;;5.77;;
4519;SDS011;2272;49.226;8.108;2023-10-13T05:37:18;15.37;;;5.90;;
4519;SDS011;2272;49.226;8.108;2023-10-13T05:40:03;8.80;;;5.63;;
4519;SDS011;2272;49.226;8.108;2023-10-13T05:42:47;5.67;;;4.83;;
4519;SDS011;2272;49.226;8.108;2023-10-13T05:45:31;10.20;;;5.80;;
4519;SDS011;2272;49.226;8.108;2023-10-13T05:48:26;30.23;;;7.97;;
4519;SDS011;2272;49.226;8.108;2023-10-13T05:51:17;10.53;;;6.50;;
4519;SDS011;2272;49.226;8.108;2023-10-13T05:54:10;29.03;;;7.23;;
4519;SDS011;2272;49.226;8.108;2023-10-13T05:56:55;15.23;;;6.87;;
4519;SDS011;2272;49.226;8.108;2023-10-13T05:59:39;16.23;;;6.60;;
4519;SDS011;2272;49.226;8.108;2023-10-13T06:02:23;11.43;;;5.40;;
4519;SDS011;2272;49.226;8.108;2023-10-13T06:05:08;8.47;;;5.53;;
4519;SDS011;2272;49.226;8.108;2023-10-13T06:07:54;7.20;;;5.83;;
4519;SDS011;2272;49.226;8.108;2023-10-13T06:10:40;10.00;;;6.00;;
4519;SDS011;2272;49.226;8.108;2023-10-13T06:13:25;8.47;;;5.50;;
4519;SDS011;2272;49.226;8.108;2023-10-13T06:16:10;9.90;;;6.27;;
4519;SDS011;2272;49.226;8.108;2023-10-13T06:18:56;7.70;;;5.20;;
4519;SDS011;2272;49.226;8.108;2023-10-13T06:21:40;23.17;;;6.20;;
4519;SDS011;2272;49.226;8.108;2023-10-13T06:24:25;9.50;;;5.97;;
4519;SDS011;2272;49.226;8.108;2023-10-13T06:27:10;8.47;;;6.20;;
4519;SDS011;2272;49.226;8.108;2023-10-13T06:29:54;7.60;;;6.10;;
4519;SDS011;2272;49.226;8.108;2023-10-13T06:32:21;15.07;;;6.20;;
4519;SDS011;2272;49.226;8.108;2023-10-13T06:34:51;13.37;;;5.87;;
4519;SDS011;2272;49.226;8.108;2023-10-13T06:37:22;10.77;;;7.13;;
4519;SDS011;2272;49.226;8.108;2023-10-13T06:39:51;10.23;;;6.00;;
4519;SDS011;2272;49.226;8.108;2023-10-13T06:42:22;13.83;;;6.37;;
4519;SDS011;2272;49.226;8.108;2023-10-13T06:44:52;11.43;;;5.43;;
4519;SDS011;2272;49.226;8.108;2023-10-13T06:47:20;17.50;;;6.70;;
4519;SDS011;2272;49.226;8.108;2023-10-13T06:49:47;12.70;;;6.23;;
4519;SDS011;2272;49.226;8.108;2023-10-13T06:52:16;11.70;;;6.30;;
4519;SDS011;2272;49.226;8.108;2023-10-13T06:54:43;16.03;;;6.73;;
4519;SDS011;2272;49.226;8.108;2023-10-13T06:57:11;10.90;;;7.00;;
4519;SDS011;2272;49.226;8.108;2023-10-13T06:59:41;8.30;;;6.17;;
4519;SDS011;2272;49.226;8.108;2023-10-13T07:02:09;13.63;;;7.27;;
4519;SDS011;2272;49.226;8.108;2023-10-13T07:04:45;9.93;;;7.00;;
4519;SDS011;2272;49.226;8.108;2023-10-13T07:07:12;8.83;;;6.13;;
4519;SDS011;2272;49.226;8.108;2023-10-13T07:09:40;14.63;;;5.73;;
4519;SDS011;2272;49.226;8.108;2023-10-13T07:12:14;10.70;;;6.50;;
4519;SDS011;2272;49.226;8.108;2023-10-13T07:14:49;10.53;;;6.70;;
4519;SDS011;2272;49.226;8.108;2023-10-13T07:17:18;13.97;;;6.47;;
4519;SDS011;2272;49.226;8.108;2023-10-13T07:19:50;7.43;;;5.93;;
4519;SDS011;2272;49.226;8.108;2023-10-13T07:22:21;9.70;;;5.37;;
4519;SDS011;2272;49.226;8.108;2023-10-13T07:24:48;11.30;;;6.17;;
4519;SDS011;2272;49.226;8.108;2023-10-13T07:27:17;14.13;;;5.63;;
4519;SDS011;2272;49.226;8.108;2023-10-13T07:29:51;10.67;;;5.40;;
4519;SDS011;2272;49.226;8.108;2023-10-13T07:32:30;17.50;;;6.77;;
4519;SDS011;2272;49.226;8.108;2023-10-13T07:34:59;11.93;;;5.80;;
4519;SDS011;2272;49.226;8.108;2023-10-13T07:37:34;14.33;;;5.60;;
4519;SDS011;2272;49.226;8.108;2023-10-13T07:40:01;21.17;;;6.13;;
4519;SDS011;2272;49.226;8.108;2023-10-13T07:42:46;8.77;;;5.33;;
4519;SDS011;2272;49.226;8.108;2023-10-13T07:45:15;8.70;;;4.97;;
4519;SDS011;2272;49.226;8.108;2023-10-13T07:47:57;18.27;;;6.50;;
4519;SDS011;2272;49.226;8.108;2023-10-13T07:50:25;8.27;;;5.60;;
4519;SDS011;2272;49.226;8.108;2023-10-13T07:52:52;10.93;;;5.43;;
4519;SDS011;2272;49.226;8.108;2023-10-13T07:55:30;10.57;;;6.13;;
4519;SDS011;2272;49.226;8.108;2023-10-13T07:57:58;16.67;;;5.93;;
4519;SDS011;2272;49.226;8.108;2023-10-13T08:00:34;8.17;;;7.00;;
4519;SDS011;2272;49.226;8.108;2023-10-13T08:03:19;21.57;;;7.70;;
4519;SDS011;2272;49.226;8.108;2023-10-13T08:05:57;16.20;;;6.90;;
4519;SDS011;2272;49.226;8.108;2023-10-13T08:08:30;10.67;;;6.17;;
4519;SDS011;2272;49.226;8.108;2023-10-13T08:11:03;17.40;;;7.03;;
4519;SDS011;2272;49.226;8.108;2023-10-13T08:13:36;17.63;;;6.80;;
4519;SDS011;2272;49.226;8.108;2023-10-13T08:16:10;12.50;;;6.20;;
4519;SDS011;2272;49.226;8.108;2023-10-13T08:18:45;13.13;;;5.57;;
4519;SDS011;2272;49.226;8.108;2023-10-13T08:21:14;13.10;;;7.60;;
4519;SDS011;2272;49.226;8.108;2023-10-13T08:23:45;9.93;;;8.00;;
4519;SDS011;2272;49.226;8.108;2023-10-13T08:26:27;10.20;;;6.40;;
4519;SDS011;2272;49.226;8.108;2023-10-13T08:29:22;9.90;;;5.67;;
4519;SDS011;2272;49.226;8.108;2023-10-13T08:32:13;10.87;;;6.30;;
4519;SDS011;2272;49.226;8.108;2023-10-13T08:35:02;23.20;;;6.07;;
4519;SDS011;2272;49.226;8.108;2023-10-13T08:37:50;15.87;;;5.97;;
4519;SDS011;2272;49.226;8.108;2023-10-13T08:40:29;7.80;;;5.40;;
4519;SDS011;2272;49.226;8.108;2023-10-13T08:43:14;5.43;;;4.90;;
4519;SDS011;2272;49.226;8.108;2023-10-13T08:45:42;8.87;;;5.47;;
4519;SDS011;2272;49.226;8.108;2023-10-13T08:48:33;12.67;;;4.93;;
4519;SDS011;2272;49.226;8.108;2023-10-13T08:51:01;6.60;;;4.87;;
4519;SDS011;2272;49.226;8.108;2023-10-13T08:53:34;15.00;;;5.50;;
4519;SDS011;2272;49.226;8.108;2023-10-13T08:56:09;8.67;;;6.37;;
4519;SDS011;2272;49.226;8.108;2023-10-13T08:58:41;9.90;;;5.73;;
4519;SDS011;2272;49.226;8.108;2023-10-13T09:01:28;22.73;;;4.90;;
4519;SDS011;2272;49.226;8.108;2023-10-13T09:04:12;9.17;;;5.77;;
4519;SDS011;2272;49.226;8.108;2023-10-13T09:06:46;8.43;;;4.80;;
4519;SDS011;2272;49.226;8.108;2023-10-13T09:09:26;5.90;;;5.30;;
4519;SDS011;2272;49.226;8.108;2023-10-13T09:11:52;14.63;;;5.83;;
4519;SDS011;2272;49.226;8.108;2023-10-13T09:14:32;7.00;;;5.60;;
4519;SDS011;2272;49.226;8.108;2023-10-13T09:17:05;7.53;;;5.17;;
4519;SDS011;2272;49.226;8.108;2023-10-13T09:19:45;6.03;;;4.90;;
4519;SDS011;2272;49.226;8.108;2023-10-13T09:22:20;20.07;;;5.63;;
4519;SDS011;2272;49.226;8.108;2023-10-13T09:24:56;7.87;;;5.47;;
4519;SDS011;2272;49.226;8.108;2023-10-13T09:27:28;7.80;;;5.50;;
4519;SDS011;2272;49.226;8.108;2023-10-13T09:29:58;12.27;;;4.70;;
4519;SDS011;2272;49.226;8.108;2023-10-13T09:32:35;14.03;;;4.77;;
4519;SDS011;2272;49.226;8.108;2023-10-13T09:35:11;8.13;;;5.20;;
4519;SDS011;2272;49.226;8.108;2023-10-13T09:37:44;9.83;;;4.70;;
4519;SDS011;2272;49.226;8.108;2023-10-13T09:40:12;7.30;;;4.97;;
4519;SDS011;2272;49.226;8.108;2023-10-13T09:42:51;16.40;;;4.67;;
4519;SDS011;2272;49.226;8.108;2023-10-13T09:45:20;12.60;;;4.70;;
4519;SDS011;2272;49.226;8.108;2023-10-13T09:47:52;11.90;;;5.10;;
4519;SDS011;2272;49.226;8.108;2023-10-13T09:50:24;4.97;;;4.57;;
4519;SDS011;2272;49.226;8.108;2023-10-13T09:52:58;37.30;;;6.00;;
4519;SDS011;2272;49.226;8.108;2023-10-13T09:55:26;15.50;;;5.50;;
4519;SDS011;2272;49.226;8.108;2023-10-13T09:58:02;10.80;;;4.83;;
4519;SDS011;2272;49.226;8.108;2023-10-13T10:00:35;10.53;;;5.10;;
4519;SDS011;2272;49.226;8.108;2023-10-13T10:03:14;31.23;;;5.53;;
4519;SDS011;2272;49.226;8.108;2023-10-13T10:05:57;8.53;;;3.67;;
4519;SDS011;2272;49.226;8.108;2023-10-13T10:08:31;14.33;;;4.40;;
4519;SDS011;2272;49.226;8.108;2023-10-13T10:11:14;17.03;;;4.97;;
4519;SDS011;2272;49.226;8.108;2023-10-13T10:14:10;5.10;;;4.57;;
4519;SDS011;2272;49.226;8.108;2023-10-13T10:16:44;13.60;;;5.00;;
4519;SDS011;2272;49.226;8.108;2023-10-13T10:19:18;14.93;;;5.10;;
4519;SDS011;2272;49.226;8.108;2023-10-13T10:21:50;10.07;;;5.53;;
4519;SDS011;2272;49.226;8.108;2023-10-13T10:24:30;6.10;;;5.23;;
4519;SDS011;2272;49.226;8.108;2023-10-13T10:26:58;13.77;;;5.53;;
4519;SDS011;2272;49.226;8.108;2023-10-13T10:29:25;12.23;;;5.20;;
4519;SDS011;2272;49.226;8.108;2023-10-13T10:31:52;5.73;;;4.77;;
4519;SDS011;2272;49.226;8.108;2023-10-13T10:34:19;7.93;;;4.80;;
4519;SDS011;2272;49.226;8.108;2023-10-13T10:36:47;12.53;;;4.90;;
4519;SDS011;2272;49.226;8.108;2023-10-13T10:39:20;8.60;;;4.23;;
4519;SDS011;2272;49.226;8.108;2023-10-13T10:42:10;11.27;;;5.17;;
4519;SDS011;2272;49.226;8.108;2023-10-13T10:44:49;8.07;;;5.20;;
4519;SDS011;2272;49.226;8.108;2023-10-13T10:47:20;16.23;;;7.00;;
4519;SDS011;2272;49.226;8.108;2023-10-13T10:49:56;18.87;;;6.00;;
4519;SDS011;2272;49.226;8.108;2023-10-13T10:52:24;7.93;;;4.37;;
4519;SDS011;2272;49.226;8.108;2023-10-13T10:55:01;12.37;;;4.90;;
4519;SDS011;2272;49.226;8.108;2023-10-13T10:57:32;6.47;;;4.77;;
4519;SDS011;2272;49.226;8.108;2023-10-13T11:00:02;6.63;;;4.50;;
4519;SDS011;2272;49.226;8.108;2023-10-13T11:02:36;7.30;;;4.77;;
4519;SDS011;2272;49.226;8.108;2023-10-13T11:05:03;8.50;;;4.80;;
4519;SDS011;2272;49.226;8.108;2023-10-13T11:07:33;20.43;;;5.00;;
4519;SDS011;2272;49.226;8.108;2023-10-13T11:10:06;11.93;;;5.83;;
4519;SDS011;2272;49.226;8.108;2023-10-13T11:12:37;14.20;;;4.87;;
4519;SDS011;2272;49.226;8.108;2023-10-13T11:15:05;17.90;;;5.43;;
4519;SDS011;2272;49.226;8.108;2023-10-13T11:17:39;8.67;;;4.77;;
4519;SDS011;2272;49.226;8.108;2023-10-13T11:20:08;16.77;;;4.57;;
4519;SDS011;2272;49.226;8.108;2023-10-13T11:22:43;10.53;;;5.23;;
4519;SDS011;2272;49.226;8.108;2023-10-13T11:25:19;12.07;;;4.67;;
4519;SDS011;2272;49.226;8.108;2023-10-13T11:27:48;15.60;;;4.90;;
4519;SDS011;2272;49.226;8.108;2023-10-13T11:30:23;15.50;;;4.67;;
4519;SDS011;2272;49.226;8.108;2023-10-13T11:33:01;16.00;;;5.50;;
4519;SDS011;2272;49.226;8.108;2023-10-13T11:35:30;24.70;;;5.43;;
4519;SDS011;2272;49.226;8.108;2023-10-13T11:38:15;17.10;;;5.00;;
4519;SDS011;2272;49.226;8.108;2023-10-13T11:40:50;5.10;;;4.10;;
4519;SDS011;2272;49.226;8.108;2023-10-13T11:43:38;9.30;;;4.17;;
4519;SDS011;2272;49.226;8.108;2023-10-13T11:46:26;11.77;;;4.30;;
4519;SDS011;2272;49.226;8.108;2023-10-13T11:49:29;5.83;;;5.17;;
4519;SDS011;2272;49.226;8.108;2023-10-13T11:52:02;18.70;;;5.07;;
4519;SDS011;2272;49.226;8.108;2023-10-13T11:54:41;18.20;;;5.57;;
4519;SDS011;2272;49.226;8.108;2023-10-13T11:57:08;11.67;;;4.70;;
4519;SDS011;2272;49.226;8.108;2023-10-13T11:59:35;13.40;;;4.60;;
4519;SDS011;2272;49.226;8.108;2023-10-13T12:02:10;12.53;;;4.00;;
4519;SDS011;2272;49.226;8.108;2023-10-13T12:04:56;16.40;;;5.00;;
4519;SDS011;2272;49.226;8.108;2023-10-13T12:07:24;16.87;;;5.10;;
4519;SDS011;2272;49.226;8.108;2023-10-13T12:10:05;15.13;;;4.60;;
4519;SDS011;2272;49.226;8.108;2023-10-13T12:12:40;9.00;;;4.80;;
4519;SDS011;2272;49.226;8.108;2023-10-13T12:15:08;12.10;;;5.67;;
4519;SDS011;2272;49.226;8.108;2023-10-13T12:17:39;8.00;;;4.87;;
4519;SDS011;2272;49.226;8.108;2023-10-13T12:20:11;17.87;;;5.47;;
4519;SDS011;2272;49.226;8.108;2023-10-13T12:22:57;10.93;;;4.80;;
4519;SDS011;2272;49.226;8.108;2023-10-13T12:25:34;10.10;;;4.70;;
4519;SDS011;2272;49.226;8.108;2023-10-13T12:28:19;14.23;;;5.23;;
4519;SDS011;2272;49.226;8.108;2023-10-13T12:30:48;9.87;;;4.60;;
4519;SDS011;2272;49.226;8.108;2023-10-13T12:33:17;17.93;;;4.60;;
4519;SDS011;2272;49.226;8.108;2023-10-13T12:35:54;23.07;;;6.07;;
4519;SDS011;2272;49.226;8.108;2023-10-13T12:38:31;16.80;;;5.10;;
4519;SDS011;2272;49.226;8.108;2023-10-13T12:41:37;14.40;;;5.30;;
4519;SDS011;2272;49.226;8.108;2023-10-13T12:44:21;12.30;;;4.60;;
4519;SDS011;2272;49.226;8.108;2023-10-13T12:47:05;15.07;;;4.23;;
4519;SDS011;2272;49.226;8.108;2023-10-13T12:49:50;20.70;;;5.50;;
4519;SDS011;2272;49.226;8.108;2023-10-13T12:52:33;6.80;;;4.90;;
4519;SDS011;2272;49.226;8.108;2023-10-13T12:55:01;16.10;;;4.10;;
4519;SDS011;2272;49.226;8.108;2023-10-13T12:57:32;10.57;;;5.50;;
4519;SDS011;2272;49.226;8.108;2023-10-13T12:59:59;9.00;;;4.30;;
4519;SDS011;2272;49.226;8.108;2023-10-13T13:02:41;15.13;;;4.80;;
4519;SDS011;2272;49.226;8.108;2023-10-13T13:05:08;19.37;;;4.20;;
4519;SDS011;2272;49.226;8.108;2023-10-13T13:07:39;14.80;;;5.07;;
4519;SDS011;2272;49.226;8.108;2023-10-13T13:10:12;9.93;;;4.13;;
4519;SDS011;2272;49.226;8.108;2023-10-13T13:12:39;13.53;;;4.50;;
4519;SDS011;2272;49.226;8.108;2023-10-13T13:15:06;21.47;;;4.77;;
4519;SDS011;2272;49.226;8.108;2023-10-13T13:17:33;15.87;;;4.50;;
4519;SDS011;2272;49.226;8.108;2023-10-13T13:20:01;11.80;;;5.10;;
4519;SDS011;2272;49.226;8.108;2023-10-13T13:22:35;16.90;;;4.27;;
4519;SDS011;2272;49.226;8.108;2023-10-13T13:25:04;14.47;;;3.80;;
4519;SDS011;2272;49.226;8.108;2023-10-13T13:27:34;16.63;;;4.27;;
4519;SDS011;2272;49.226;8.108;2023-10-13T13:30:01;4.90;;;3.90;;
4519;SDS011;2272;49.226;8.108;2023-10-13T13:32:37;9.97;;;4.13;;
4519;SDS011;2272;49.226;8.108;2023-10-13T13:35:06;16.83;;;4.97;;
4519;SDS011;2272;49.226;8.108;2023-10-13T13:37:34;18.17;;;5.00;;
4519;SDS011;2272;49.226;8.108;2023-10-13T13:40:05;14.13;;;4.27;;
4519;SDS011;2272;49.226;8.108;2023-10-13T13:42:39;13.60;;;4.87;;
4519;SDS011;2272;49.226;8.108;2023-10-13T13:45:11;8.93;;;4.80;;
4519;SDS011;2272;49.226;8.108;2023-10-13T13:47:46;17.37;;;4.10;;
4519;SDS011;2272;49.226;8.108;2023-10-13T13:50:18;14.37;;;4.33;;
4519;SDS011;2272;49.226;8.108;2023-10-13T13:52:49;20.17;;;4.20;;
4519;SDS011;2272;49.226;8.108;2023-10-13T13:55:19;11.40;;;4.07;;
4519;SDS011;2272;49.226;8.108;2023-10-13T13:57:47;10.93;;;4.20;;
4519;SDS011;2272;49.226;8.108;2023-10-13T14:00:15;16.50;;;3.80;;
4519;SDS011;2272;49.226;8.108;2023-10-13T14:02:47;9.63;;;4.40;;
4519;SDS011;2272;49.226;8.108;2023-10-13T14:05:14;29.13;;;4.13;;
4519;SDS011;2272;49.226;8.108;2023-10-13T14:07:42;8.53;;;4.37;;
4519;SDS011;2272;49.226;8.108;2023-10-13T14:10:13;16.43;;;5.00;;
4519;SDS011;2272;49.226;8.108;2023-10-13T14:12:57;23.73;;;4.23;;
4519;SDS011;2272;49.226;8.108;2023-10-13T14:15:32;11.43;;;5.47;;
4519;SDS011;2272;49.226;8.108;2023-10-13T14:18:06;11.13;;;4.93;;
4519;SDS011;2272;49.226;8.108;2023-10-13T14:20:37;21.57;;;4.70;;
4519;SDS011;2272;49.226;8.108;2023-10-13T14:23:05;6.83;;;4.30;;
4519;SDS011;2272;49.226;8.108;2023-10-13T14:25:34;19.30;;;4.27;;
4519;SDS011;2272;49.226;8.108;2023-10-13T14:28:04;5.93;;;4.00;;
4519;SDS011;2272;49.226;8.108;2023-10-13T14:30:32;8.70;;;4.40;;
4519;SDS011;2272;49.226;8.108;2023-10-13T14:32:59;27.83;;;4.20;;
4519;SDS011;2272;49.226;8.108;2023-10-13T14:35:26;4.83;;;3.63;;
4519;SDS011;2272;49.226;8.108;2023-10-13T14:37:53;21.40;;;3.97;;
4519;SDS011;2272;49.226;8.108;2023-10-13T14:40:20;13.83;;;4.30;;
4519;SDS011;2272;49.226;8.108;2023-10-13T14:42:47;12.17;;;3.70;;
4519;SDS011;2272;49.226;8.108;2023-10-13T14:45:16;10.67;;;4.20;;
4519;SDS011;2272;49.226;8.108;2023-10-13T14:47:42;13.37;;;4.83;;
4519;SDS011;2272;49.226;8.108;2023-10-13T14:50:11;7.33;;;4.20;;
4519;SDS011;2272;49.226;8.108;2023-10-13T14:52:45;4.37;;;3.80;;
4519;SDS011;2272;49.226;8.108;2023-10-13T14:55:13;5.10;;;3.40;;
4519;SDS011;2272;49.226;8.108;2023-10-13T14:57:46;12.90;;;4.20;;
4519;SDS011;2272;49.226;8.108;2023-10-13T15:00:16;23.37;;;5.17;;
4519;SDS011;2272;49.226;8.108;2023-10-13T15:02:50;9.93;;;3.80;;
4519;SDS011;2272;49.226;8.108;2023-10-13T15:05:17;5.83;;;3.97;;
4519;SDS011;2272;49.226;8.108;2023-10-13T15:07:44;16.90;;;3.90;;
4519;SDS011;2272;49.226;8.108;2023-10-13T15:10:12;6.67;;;3.70;;
4519;SDS011;2272;49.226;8.108;2023-10-13T15:12:40;6.20;;;3.80;;
4519;SDS011;2272;49.226;8.108;2023-10-13T15:15:09;9.97;;;3.37;;
4519;SDS011;2272;49.226;8.108;2023-10-13T15:17:42;7.53;;;3.83;;
4519;SDS011;2272;49.226;8.108;2023-10-13T15:20:09;5.03;;;3.60;;
4519;SDS011;2272;49.226;8.108;2023-10-13T15:22:41;16.53;;;3.97;;
4519;SDS011;2272;49.226;8.108;2023-10-13T15:25:08;8.10;;;4.40;;
4519;SDS011;2272;49.226;8.108;2023-10-13T15:27:42;15.17;;;3.90;;
4519;SDS011;2272;49.226;8.108;2023-10-13T15:30:15;13.70;;;3.40;;
4519;SDS011;2272;49.226;8.108;2023-10-13T15:32:50;7.07;;;4.00;;
4519;SDS011;2272;49.226;8.108;2023-10-13T15:35:16;10.00;;;3.87;;
4519;SDS011;2272;49.226;8.108;2023-10-13T15:37:43;8.83;;;3.97;;
4519;SDS011;2272;49.226;8.108;2023-10-13T15:40:13;11.30;;;3.80;;
4519;SDS011;2272;49.226;8.108;2023-10-13T15:42:41;11.20;;;4.90;;
4519;SDS011;2272;49.226;8.108;2023-10-13T15:45:10;19.93;;;4.97;;
4519;SDS011;2272;49.226;8.108;2023-10-13T15:47:42;13.90;;;4.13;;